Keegan Foss — WCW5595 — position and weather

sailwx.info

Track history (hours):
 
Tides and Currents Weather Stations Pressure Air Temp Water Temp Dewpoint Dewpoint Depression Visibility Wind Speed Wind Dir Waves Ship Positions

Keegan Foss

Owner: FOSS MARITIME CO, SEATTLE, WA. More information available from US FCC via Universal Licensing System and Coast Guard Vessel Documentation Center.

Last reported at 2017-Oct-22 20:54 UTC. Time now 2017-Oct-22 21:21 UTC.
Position N 37°55' W 122°25'.

Length 31 m; draft 3.6 m.

Type: Tug. MMSI: 366979330.

Date/timePositionNaut miles runAvg speedWind from/ knotsBaromVisibWave heightAir tempDewpointWater temp
2017-Oct-22 20:54N 37°55' W 122°25'0 0.0
2017-Oct-22 20:30N 37°55' W 122°25'2 4.1
2017-Oct-22 20:00N 37°54' W 122°22'1 1.6
2017-Oct-22 19:30N 37°55' W 122°22'1 1.6
2017-Oct-22 19:00N 37°54' W 122°22'0 0.0
2017-Oct-22 18:30N 37°54' W 122°22'1 1.6
2017-Oct-22 17:57N 37°55' W 122°22'0 0.0
2017-Oct-22 17:30N 37°55' W 122°22'0 0.0
2017-Oct-22 17:00N 37°55' W 122°22'0 0.0
2017-Oct-22 16:30N 37°55' W 122°22'0 0.0
2017-Oct-22 16:00N 37°55' W 122°22'0 0.0
2017-Oct-22 15:30N 37°55' W 122°22'0 0.0
2017-Oct-22 15:00N 37°55' W 122°22'0 0.0
2017-Oct-22 14:27N 37°55' W 122°22'0 0.0
2017-Oct-22 14:00N 37°55' W 122°22'0 0.0
2017-Oct-22 13:30N 37°55' W 122°22'0 0.0
2017-Oct-22 13:00N 37°55' W 122°22'0 0.0
2017-Oct-22 12:30N 37°55' W 122°22'0 0.0
2017-Oct-22 11:57N 37°55' W 122°22'0 0.0
2017-Oct-22 11:30N 37°55' W 122°22'1 1.4
2017-Oct-22 11:00N 37°54' W 122°22'2 4.7
2017-Oct-22 10:30N 37°55' W 122°25'1 1.3
2017-Oct-22 10:00N 37°55' W 122°25'0 0.4
2017-Oct-22 09:31N 37°55' W 122°25'0 0.0
2017-Oct-22 09:00N 37°55' W 122°25'0 0.0
2017-Oct-22 08:25N 37°55' W 122°25'0 0.0
2017-Oct-22 07:52N 37°55' W 122°25'0 0.0
2017-Oct-22 07:30N 37°55' W 122°25'0 0.0
2017-Oct-22 06:57N 37°55' W 122°25'0 0.0
2017-Oct-22 06:27N 37°55' W 122°25'0 0.0
2017-Oct-22 06:00N 37°55' W 122°25'0 0.0
2017-Oct-22 05:27N 37°55' W 122°25'0 0.0
2017-Oct-22 05:00N 37°55' W 122°25'1 1.5
2017-Oct-22 04:30N 37°55' W 122°24'2 3.2
2017-Oct-22 04:00N 37°54' W 122°22'0 0.0
2017-Oct-22 03:30N 37°54' W 122°22'0 0.0
2017-Oct-22 03:00N 37°54' W 122°22'0 0.0
2017-Oct-22 02:30N 37°54' W 122°22'0 0.0
2017-Oct-22 02:00N 37°54' W 122°22'0 0.0
2017-Oct-22 01:30N 37°54' W 122°22'0 0.0
2017-Oct-22 01:00N 37°54' W 122°22'0 0.0
2017-Oct-22 00:30N 37°54' W 122°22'0 0.0
2017-Oct-22 00:00N 37°54' W 122°22'0 0.0
2017-Oct-21 23:30N 37°54' W 122°22'0 0.0
2017-Oct-21 23:00N 37°54' W 122°22'0 0.0
2017-Oct-21 22:30N 37°54' W 122°22'0 0.0
2017-Oct-21 22:00N 37°54' W 122°22'0 0.0
2017-Oct-21 21:30N 37°54' W 122°22'0 0.0
2017-Oct-21 21:00N 37°54' W 122°22'0 0.0
2017-Oct-21 20:30N 37°54' W 122°22'0 0.1
2017-Oct-21 20:00N 37°54' W 122°22'1 1.9
2017-Oct-21 19:30N 37°55' W 122°22'1 1.6
2017-Oct-21 19:00N 37°55' W 122°22'2 4.4
2017-Oct-21 18:30N 37°55' W 122°24'1 1.6
2017-Oct-21 18:00N 37°56' W 122°25'0 0.3
2017-Oct-21 17:20N 37°55' W 122°25'0 0.0
2017-Oct-21 16:56N 37°55' W 122°25'0 0.0
2017-Oct-21 16:29N 37°55' W 122°25'0 0.0
2017-Oct-21 15:59N 37°55' W 122°25'0 0.0
2017-Oct-21 15:14N 37°55' W 122°25'0 0.0
2017-Oct-21 14:56N 37°55' W 122°25'0 0.0
2017-Oct-21 14:30N 37°55' W 122°25'0 0.0
2017-Oct-21 13:29N 37°55' W 122°25'0 0.0
2017-Oct-21 12:59N 37°55' W 122°25'0 0.0
2017-Oct-21 12:29N 37°55' W 122°25'0 0.0
2017-Oct-21 11:59N 37°55' W 122°25'0 0.0
2017-Oct-21 11:26N 37°55' W 122°25'0 0.0
2017-Oct-21 10:59N 37°55' W 122°25'0 0.0
2017-Oct-21 10:29N 37°55' W 122°25'0 0.0
2017-Oct-21 09:56N 37°55' W 122°25'0 0.0
2017-Oct-21 09:29N 37°55' W 122°25'0 0.0
2017-Oct-21 08:59N 37°55' W 122°25'0 0.0
2017-Oct-21 08:26N 37°55' W 122°25'0 0.0
2017-Oct-21 07:59N 37°55' W 122°25'0 0.0
2017-Oct-21 07:26N 37°55' W 122°25'0 0.0
2017-Oct-21 06:59N 37°55' W 122°25'0 0.0
2017-Oct-21 06:29N 37°55' W 122°25'0 0.0
2017-Oct-21 05:59N 37°55' W 122°25'0 0.0
2017-Oct-21 05:29N 37°55' W 122°25'0 0.0
2017-Oct-21 04:53N 37°55' W 122°25'0 0.3
2017-Oct-21 04:30N 37°55' W 122°25'0 0.9
2017-Oct-21 04:00N 37°56' W 122°25'0 0.2
2017-Oct-21 03:30N 37°56' W 122°25'2 4.7
2017-Oct-21 03:01N 37°54' W 122°22'0 0.0
2017-Oct-21 02:30N 37°54' W 122°22'0 0.0
2017-Oct-21 02:00N 37°54' W 122°22'0 0.0
2017-Oct-21 01:30N 37°54' W 122°22'0 0.0
2017-Oct-21 01:00N 37°54' W 122°22'0 0.0
2017-Oct-21 00:30N 37°54' W 122°22'0 0.0
2017-Oct-21 00:00N 37°54' W 122°22'0 0.0
2017-Oct-20 23:30N 37°54' W 122°22'0 0.0
2017-Oct-20 23:00N 37°54' W 122°22'0 0.5
2017-Oct-20 22:30N 37°54' W 122°22'1 2.1
2017-Oct-20 22:00N 37°55' W 122°22'0 0.8
2017-Oct-20 21:30N 37°55' W 122°22'1 1.5
2017-Oct-20 21:01N 37°54' W 122°22'0 0.0
2017-Oct-20 20:30N 37°54' W 122°22'0 0.0
2017-Oct-20 20:00N 37°54' W 122°22'0 0.0
2017-Oct-20 19:31N 37°54' W 122°22'0 0.0
2017-Oct-20 19:00N 37°54' W 122°22'0 0.0
2017-Oct-20 18:30N 37°54' W 122°22'0 0.9
2017-Oct-20 18:00N 37°54' W 122°23'2 2.8
2017-Oct-20 17:25N 37°55' W 122°25'0 0.0
2017-Oct-20 16:58N 37°55' W 122°25'0 0.0
2017-Oct-20 16:25N 37°55' W 122°25'0 0.0
2017-Oct-20 15:58N 37°55' W 122°25'0 0.0
2017-Oct-20 15:25N 37°55' W 122°25'0 0.0
2017-Oct-20 14:58N 37°55' W 122°25'0 0.0
2017-Oct-20 13:49N 37°55' W 122°25'0 0.0
2017-Oct-20 13:28N 37°55' W 122°25'0 0.0
2017-Oct-20 12:58N 37°55' W 122°25'0 0.0
2017-Oct-20 12:28N 37°55' W 122°25'0 0.0
2017-Oct-20 11:58N 37°55' W 122°25'0 0.0
2017-Oct-20 11:28N 37°55' W 122°25'0 0.0
2017-Oct-20 10:58N 37°55' W 122°25'0 0.0
2017-Oct-20 10:28N 37°55' W 122°25'0 0.0
2017-Oct-20 09:58N 37°55' W 122°25'0 0.0
2017-Oct-20 09:28N 37°55' W 122°25'0 0.0
2017-Oct-20 08:55N 37°55' W 122°25'0 0.0
2017-Oct-20 08:28N 37°55' W 122°25'0 0.0
2017-Oct-20 08:01N 37°55' W 122°25'2 4.3
2017-Oct-20 07:30N 37°55' W 122°22'0 0.4
2017-Oct-20 07:00N 37°55' W 122°22'2 3.3
2017-Oct-20 06:31N 37°54' W 122°24'1 3.0
2017-Oct-20 06:00N 37°56' W 122°25'0 1.0
2017-Oct-20 05:31N 37°55' W 122°25'0 0.2
2017-Oct-20 05:01N 37°55' W 122°25'0 0.0
2017-Oct-20 04:30N 37°55' W 122°25'0 0.0
2017-Oct-20 04:01N 37°55' W 122°25'0 0.0
2017-Oct-20 03:31N 37°55' W 122°25'0 0.0
2017-Oct-20 03:01N 37°55' W 122°25'0 0.0
2017-Oct-20 02:31N 37°55' W 122°25'0 0.0
2017-Oct-20 02:00N 37°55' W 122°25'0 0.0
2017-Oct-20 01:30N 37°55' W 122°25'0 0.0
2017-Oct-20 01:01N 37°55' W 122°25'0 0.0
2017-Oct-20 00:30N 37°55' W 122°25'0 0.0
2017-Oct-20 00:01N 37°55' W 122°25'0 0.0
2017-Oct-19 23:30N 37°55' W 122°25'0 0.0
2017-Oct-19 23:01N 37°55' W 122°25'0 0.0
2017-Oct-19 22:31N 37°55' W 122°25'0 0.0
2017-Oct-19 22:01N 37°55' W 122°25'0 0.0
2017-Oct-19 21:31N 37°55' W 122°25'0 0.0
2017-Oct-19 21:00N 37°55' W 122°25'0 0.0
2017-Oct-19 20:31N 37°55' W 122°25'0 0.9
2017-Oct-19 20:01N 37°56' W 122°25'0 0.0
2017-Oct-19 19:30N 37°56' W 122°25'1 1.5
2017-Oct-19 19:01N 37°55' W 122°25'1 2.0
2017-Oct-19 18:30N 37°54' W 122°25'1 2.7
2017-Oct-19 18:00N 37°55' W 122°25'0 0.0
2017-Oct-19 17:09N 37°55' W 122°25'0 0.0
2017-Oct-19 16:48N 37°55' W 122°25'0 0.0
2017-Oct-19 16:27N 37°55' W 122°25'0 0.0
2017-Oct-19 15:57N 37°55' W 122°25'0 0.0
2017-Oct-19 15:30N 37°55' W 122°25'2 4.1
2017-Oct-19 15:01N 37°54' W 122°22'0 0.1
2017-Oct-19 14:30N 37°54' W 122°22'0 0.0
2017-Oct-19 14:00N 37°54' W 122°22'0 0.0
2017-Oct-19 13:30N 37°54' W 122°22'0 0.0
2017-Oct-19 13:00N 37°54' W 122°22'0 0.0
2017-Oct-19 12:30N 37°54' W 122°22'0 0.0
2017-Oct-19 12:00N 37°54' W 122°22'0 0.1
2017-Oct-19 11:29N 37°54' W 122°22'1 1.8
2017-Oct-19 11:00N 37°54' W 122°23'2 4.0
2017-Oct-19 10:30N 37°53' W 122°24'4 8.0
2017-Oct-19 10:00N 37°49' W 122°22'2 3.5
2017-Oct-19 09:30N 37°49' W 122°19'0 0.1
2017-Oct-19 09:00N 37°49' W 122°20'0 0.0
2017-Oct-19 08:30N 37°49' W 122°20'0 0.0
2017-Oct-19 08:00N 37°49' W 122°20'0 0.0
2017-Oct-19 07:30N 37°49' W 122°20'0 0.0
2017-Oct-19 07:00N 37°49' W 122°20'0 0.0
2017-Oct-19 06:30N 37°49' W 122°20'0 0.0
2017-Oct-19 06:00N 37°49' W 122°20'0 0.0
2017-Oct-19 05:30N 37°49' W 122°20'0 0.1
2017-Oct-19 05:00N 37°49' W 122°19'2 4.1
2017-Oct-19 04:30N 37°50' W 122°22'4 7.9
2017-Oct-19 04:00N 37°53' W 122°25'2 4.4
2017-Oct-19 03:30N 37°54' W 122°22'1 1.9
2017-Oct-19 03:00N 37°55' W 122°22'1 1.6
2017-Oct-19 02:30N 37°54' W 122°22'0 0.0
2017-Oct-19 01:53N 37°54' W 122°22'0 0.0
2017-Oct-19 01:29N 37°54' W 122°22'0 0.0
2017-Oct-19 00:59N 37°54' W 122°22'0 0.0
2017-Oct-19 00:26N 37°54' W 122°22'0 0.0
2017-Oct-18 23:59N 37°54' W 122°22'0 0.0
2017-Oct-18 23:29N 37°54' W 122°22'0 0.0
2017-Oct-18 22:59N 37°54' W 122°22'0 0.4
2017-Oct-18 22:30N 37°54' W 122°22'1 2.0
2017-Oct-18 21:59N 37°55' W 122°22'1 2.1
2017-Oct-18 21:30N 37°54' W 122°23'2 4.5
2017-Oct-18 20:59N 37°56' W 122°25'0 0.4
2017-Oct-18 20:30N 37°56' W 122°25'2 4.6
2017-Oct-18 19:58N 37°54' W 122°22'0 0.0
2017-Oct-18 19:28N 37°54' W 122°22'0 0.0
2017-Oct-18 18:58N 37°54' W 122°22'0 0.0
2017-Oct-18 18:28N 37°54' W 122°22'0 0.0
2017-Oct-18 17:58N 37°54' W 122°22'0 0.0
2017-Oct-18 17:30N 37°54' W 122°22'1 1.5
2017-Oct-18 17:00N 37°55' W 122°22'0 0.4
2017-Oct-18 16:30N 37°55' W 122°22'1 1.3
2017-Oct-18 16:00N 37°54' W 122°22'0 0.1
2017-Oct-18 15:30N 37°54' W 122°22'0 0.0
2017-Oct-18 15:00N 37°54' W 122°22'0 0.0
2017-Oct-18 13:57N 37°54' W 122°22'0 0.0
2017-Oct-18 13:24N 37°54' W 122°22'0 0.0
2017-Oct-18 12:54N 37°54' W 122°22'0 0.0
2017-Oct-18 12:27N 37°54' W 122°22'0 0.0
2017-Oct-18 12:00N 37°54' W 122°22'0 0.0
2017-Oct-18 11:27N 37°54' W 122°22'0 0.0
2017-Oct-18 10:57N 37°54' W 122°22'0 0.0
2017-Oct-18 10:24N 37°54' W 122°22'0 0.0
2017-Oct-18 10:00N 37°54' W 122°22'0 0.0
2017-Oct-18 09:30N 37°54' W 122°22'0 0.0
2017-Oct-18 09:00N 37°54' W 122°22'0 0.0
2017-Oct-18 08:30N 37°54' W 122°22'0 0.0
2017-Oct-18 08:00N 37°54' W 122°22'0 0.0
2017-Oct-18 07:30N 37°54' W 122°22'0 0.0
2017-Oct-18 07:00N 37°54' W 122°22'0 0.0
2017-Oct-18 06:30N 37°54' W 122°22'0 0.0
2017-Oct-18 06:00N 37°54' W 122°22'0 0.0
2017-Oct-18 05:30N 37°54' W 122°22'0 0.0
2017-Oct-18 05:00N 37°54' W 122°22'0 0.0
2017-Oct-18 04:30N 37°54' W 122°22'0 0.9
2017-Oct-18 04:00N 37°54' W 122°22'0 0.0
2017-Oct-18 03:31N 37°54' W 122°22'0 0.8
2017-Oct-18 03:00N 37°54' W 122°22'3 5.7
2017-Oct-18 02:30N 37°56' W 122°25'2 3.8
2017-Oct-18 02:00N 37°54' W 122°24'1 2.9
2017-Oct-18 01:30N 37°54' W 122°22'0 0.1
2017-Oct-18 01:00N 37°54' W 122°22'0 0.6
2017-Oct-18 00:30N 37°55' W 122°22'0 0.5
2017-Oct-18 00:00N 37°55' W 122°22'1 1.1
2017-Oct-17 23:28N 37°54' W 122°22'0 0.0
2017-Oct-17 22:55N 37°54' W 122°22'0 0.0
2017-Oct-17 22:29N 37°54' W 122°22'1 2.1
2017-Oct-17 22:00N 37°54' W 122°24'2 4.6
2017-Oct-17 21:30N 37°52' W 122°25'4 8.9
2017-Oct-17 21:00N 37°48' W 122°22'2 4.3
2017-Oct-17 20:30N 37°46' W 122°21'0 0.0
2017-Oct-17 20:01N 37°46' W 122°21'0 0.0
2017-Oct-17 19:30N 37°46' W 122°21'0 0.3
2017-Oct-17 19:00N 37°46' W 122°21'0 0.1
2017-Oct-17 18:30N 37°46' W 122°21'0 0.1
2017-Oct-17 18:01N 37°46' W 122°21'0 0.0
2017-Oct-17 17:30N 37°46' W 122°21'0 0.0
2017-Oct-17 17:00N 37°46' W 122°21'0 0.0
2017-Oct-17 16:30N 37°46' W 122°21'4 8.0
2017-Oct-17 16:00N 37°50' W 122°23'4 7.7
2017-Oct-17 15:30N 37°53' W 122°24'2 4.6
2017-Oct-17 15:00N 37°54' W 122°22'0 0.1
2017-Oct-17 14:30N 37°54' W 122°22'0 0.0
2017-Oct-17 14:00N 37°54' W 122°22'0 0.0
2017-Oct-17 13:30N 37°54' W 122°22'0 0.0
2017-Oct-17 13:00N 37°54' W 122°22'0 0.0
2017-Oct-17 12:30N 37°54' W 122°22'0 0.0
2017-Oct-17 12:01N 37°54' W 122°22'0 0.0
2017-Oct-17 11:30N 37°54' W 122°22'1 1.0
2017-Oct-17 11:00N 37°54' W 122°22'0 0.1
2017-Oct-17 10:30N 37°54' W 122°22'0 0.0
2017-Oct-17 10:00N 37°54' W 122°22'0 0.0
2017-Oct-17 09:27N 37°54' W 122°22'0 0.0
2017-Oct-17 09:00N 37°54' W 122°22'0 0.0
2017-Oct-17 08:30N 37°54' W 122°22'0 0.0
2017-Oct-17 08:00N 37°54' W 122°22'0 0.0
2017-Oct-17 07:30N 37°54' W 122°22'0 0.0
2017-Oct-17 07:00N 37°54' W 122°22'0 0.0
2017-Oct-17 06:30N 37°54' W 122°22'0 0.0
2017-Oct-17 06:00N 37°54' W 122°22'0 0.0
2017-Oct-17 05:30N 37°54' W 122°22'0 0.0
2017-Oct-17 05:00N 37°54' W 122°22'0 0.0
2017-Oct-17 04:30N 37°54' W 122°22'0 0.0
2017-Oct-17 04:00N 37°54' W 122°22'0 0.0
2017-Oct-17 03:15N 37°54' W 122°22'0 0.0
2017-Oct-17 03:00N 37°54' W 122°22'0 0.0
2017-Oct-17 02:30N 37°54' W 122°22'0 0.0
2017-Oct-17 02:00N 37°54' W 122°22'0 0.0
2017-Oct-17 01:27N 37°54' W 122°22'0 0.0
2017-Oct-17 01:00N 37°54' W 122°22'0 0.0
2017-Oct-17 00:30N 37°54' W 122°22'0 0.5
2017-Oct-17 00:00N 37°54' W 122°23'2 3.6
2017-Oct-16 23:31N 37°54' W 122°25'4 7.0
2017-Oct-16 23:00N 37°51' W 122°23'4 7.1
2017-Oct-16 22:30N 37°48' W 122°20'2 3.1
2017-Oct-16 22:00N 37°48' W 122°18'0 0.0
2017-Oct-16 21:30N 37°48' W 122°18'0 0.0
2017-Oct-16 21:00N 37°48' W 122°18'0 0.0
2017-Oct-16 20:31N 37°48' W 122°18'0 0.0
2017-Oct-16 20:00N 37°48' W 122°18'0 0.0
2017-Oct-16 19:30N 37°48' W 122°18'0 0.0
2017-Oct-16 19:01N 37°48' W 122°18'0 0.0
2017-Oct-16 18:31N 37°48' W 122°18'0 0.0
2017-Oct-16 18:01N 37°48' W 122°18'0 0.0
2017-Oct-16 17:30N 37°48' W 122°18'0 0.0
2017-Oct-16 17:00N 37°48' W 122°18'0 0.0
2017-Oct-16 16:30N 37°48' W 122°18'0 0.0
2017-Oct-16 16:01N 37°48' W 122°18'2 3.8
2017-Oct-16 15:31N 37°48' W 122°20'4 8.0
2017-Oct-16 15:00N 37°51' W 122°23'4 3.7
2017-Oct-16 14:01N 37°55' W 122°22'0 0.8
2017-Oct-16 13:31N 37°54' W 122°22'0 0.9
2017-Oct-16 12:59N 37°54' W 122°22'0 0.0
2017-Oct-16 12:29N 37°54' W 122°22'0 0.0
2017-Oct-16 11:59N 37°54' W 122°22'0 0.0
2017-Oct-16 11:29N 37°54' W 122°22'0 0.0
2017-Oct-16 10:59N 37°54' W 122°22'0 0.0
2017-Oct-16 10:29N 37°54' W 122°22'0 0.0
2017-Oct-16 09:59N 37°54' W 122°22'0 0.0
2017-Oct-16 09:29N 37°54' W 122°22'0 0.0
2017-Oct-16 08:59N 37°54' W 122°22'0 0.0
2017-Oct-16 08:29N 37°54' W 122°22'0 0.0
2017-Oct-16 07:59N 37°54' W 122°22'0 0.0
2017-Oct-16 07:29N 37°54' W 122°22'0 0.0
2017-Oct-16 06:59N 37°54' W 122°22'0 0.0
2017-Oct-16 06:29N 37°54' W 122°22'0 0.0
2017-Oct-16 05:59N 37°54' W 122°22'0 0.0
2017-Oct-16 05:29N 37°54' W 122°22'0 0.0
2017-Oct-16 04:59N 37°54' W 122°22'0 0.0
2017-Oct-16 04:29N 37°54' W 122°22'0 0.0
2017-Oct-16 03:59N 37°54' W 122°22'0 0.0
2017-Oct-16 03:29N 37°54' W 122°22'0 0.0
2017-Oct-16 02:59N 37°54' W 122°22'0 0.0
2017-Oct-16 02:29N 37°54' W 122°22'0 0.0
2017-Oct-16 01:59N 37°54' W 122°22'0 0.0
2017-Oct-16 01:29N 37°54' W 122°22'0 0.0
2017-Oct-16 00:56N 37°54' W 122°22'0 0.0
2017-Oct-16 00:29N 37°54' W 122°22'0 0.0
2017-Oct-15 23:59N 37°54' W 122°22'0 0.0
2017-Oct-15 23:29N 37°54' W 122°22'0 0.0
2017-Oct-15 22:59N 37°54' W 122°22'0 0.0
2017-Oct-15 22:29N 37°54' W 122°22'0 0.0
2017-Oct-15 21:59N 37°54' W 122°22'0 0.0
2017-Oct-15 21:29N 37°54' W 122°22'0 0.0
2017-Oct-15 20:59N 37°54' W 122°22'0 0.0
2017-Oct-15 20:23N 37°54' W 122°22'0 0.0
2017-Oct-15 19:59N 37°54' W 122°22'0 0.0
2017-Oct-15 19:29N 37°54' W 122°22'0 0.0
2017-Oct-15 18:56N 37°54' W 122°22'0 0.0
2017-Oct-15 18:29N 37°54' W 122°22'0 0.0
2017-Oct-15 17:56N 37°54' W 122°22'0 0.0
2017-Oct-15 17:29N 37°54' W 122°22'0 0.0
2017-Oct-15 16:59N 37°54' W 122°22'0 0.0
2017-Oct-15 16:26N 37°54' W 122°22'0 0.0
2017-Oct-15 15:59N 37°54' W 122°22'0 0.0
2017-Oct-15 15:29N 37°54' W 122°22'0 0.0
2017-Oct-15 14:53N 37°54' W 122°22'0 0.0
2017-Oct-15 13:56N 37°54' W 122°22'0 0.0
2017-Oct-15 13:23N 37°54' W 122°22'0 0.0
2017-Oct-15 12:59N 37°54' W 122°22'0 0.0
2017-Oct-15 12:29N 37°54' W 122°22'0 0.0
2017-Oct-15 11:59N 37°54' W 122°22'0 0.0
2017-Oct-15 11:29N 37°54' W 122°22'0 0.0
2017-Oct-15 10:59N 37°54' W 122°22'0 0.0
2017-Oct-15 10:29N 37°54' W 122°22'0 0.0
2017-Oct-15 09:59N 37°54' W 122°22'0 0.0
2017-Oct-15 09:26N 37°54' W 122°22'0 0.0
2017-Oct-15 08:59N 37°54' W 122°22'0 0.0
2017-Oct-15 08:29N 37°54' W 122°22'0 0.0
2017-Oct-15 07:59N 37°54' W 122°22'0 0.0
2017-Oct-15 07:29N 37°54' W 122°22'0 0.0
2017-Oct-15 06:59N 37°54' W 122°22'0 0.0
2017-Oct-15 06:29N 37°54' W 122°22'0 0.0
2017-Oct-15 05:59N 37°54' W 122°22'0 0.0
2017-Oct-15 05:29N 37°54' W 122°22'0 0.0
2017-Oct-15 04:59N 37°54' W 122°22'0 0.0
2017-Oct-15 04:29N 37°54' W 122°22'0 0.0
2017-Oct-15 03:59N 37°54' W 122°22'0 0.0
2017-Oct-15 03:29N 37°54' W 122°22'0 0.0
2017-Oct-15 02:59N 37°54' W 122°22'0 0.0
2017-Oct-15 02:26N 37°54' W 122°22'0 0.0
2017-Oct-15 01:59N 37°54' W 122°22'0 0.0
2017-Oct-15 01:29N 37°54' W 122°22'0 0.0
2017-Oct-15 00:59N 37°54' W 122°22'0 0.0
2017-Oct-15 00:11N 37°54' W 122°22'0 0.0
2017-Oct-14 23:56N 37°54' W 122°22'0 0.0
2017-Oct-14 23:29N 37°54' W 122°22'0 0.0
2017-Oct-14 22:59N 37°54' W 122°22'0 0.0
2017-Oct-14 22:30N 37°54' W 122°22'0 0.0
2017-Oct-14 21:59N 37°54' W 122°22'0 0.0
2017-Oct-14 21:26N 37°54' W 122°22'0 0.0
2017-Oct-14 20:56N 37°54' W 122°22'0 0.0
2017-Oct-14 20:23N 37°54' W 122°22'0 0.0
2017-Oct-14 19:59N 37°54' W 122°22'0 0.0
2017-Oct-14 19:29N 37°54' W 122°22'0 0.0
2017-Oct-14 18:50N 37°54' W 122°22'0 0.0
2017-Oct-14 18:26N 37°54' W 122°22'0 0.0
2017-Oct-14 17:32N 37°54' W 122°22'0 0.0
2017-Oct-14 17:29N 37°54' W 122°22'0 0.0
2017-Oct-14 16:59N 37°54' W 122°22'0 0.0
2017-Oct-14 16:20N 37°54' W 122°22'0 0.0
2017-Oct-14 15:59N 37°54' W 122°22'0 0.0
2017-Oct-14 15:29N 37°54' W 122°22'0 0.0
2017-Oct-14 14:59N 37°54' W 122°22'0 0.0
2017-Oct-14 14:26N 37°54' W 122°22'0 0.0
2017-Oct-14 13:59N 37°54' W 122°22'0 0.0
2017-Oct-14 13:29N 37°54' W 122°22'0 0.0
2017-Oct-14 12:59N 37°54' W 122°22'0 0.0
2017-Oct-14 12:29N 37°54' W 122°22'0 0.0
2017-Oct-14 11:59N 37°54' W 122°22'0 0.0
2017-Oct-14 11:29N 37°54' W 122°22'0 0.0
2017-Oct-14 10:59N 37°54' W 122°22'0 0.0
2017-Oct-14 10:29N 37°54' W 122°22'0 0.0
2017-Oct-14 09:59N 37°54' W 122°22'0 0.0
2017-Oct-14 09:29N 37°54' W 122°22'0 0.0
2017-Oct-14 08:59N 37°54' W 122°22'0 0.0
2017-Oct-14 08:29N 37°54' W 122°22'0 0.0
2017-Oct-14 07:56N 37°54' W 122°22'0 0.0
2017-Oct-14 07:29N 37°54' W 122°22'0 0.0
2017-Oct-14 06:44N 37°54' W 122°22'0 0.0
2017-Oct-14 06:29N 37°54' W 122°22'0 0.0
2017-Oct-14 05:59N 37°54' W 122°22'0 0.0
2017-Oct-14 05:17N 37°54' W 122°22'0 0.0
2017-Oct-14 04:59N 37°54' W 122°22'0 0.0
2017-Oct-14 04:29N 37°54' W 122°22'0 0.0
2017-Oct-14 03:56N 37°54' W 122°22'0 0.0
2017-Oct-14 03:29N 37°54' W 122°22'0 0.0
2017-Oct-14 02:59N 37°54' W 122°22'0 0.0
2017-Oct-14 02:26N 37°54' W 122°22'0 0.0
2017-Oct-14 01:59N 37°54' W 122°22'0 0.0
2017-Oct-14 01:23N 37°54' W 122°22'0 0.0
2017-Oct-14 00:59N 37°54' W 122°22'0 0.0
2017-Oct-14 00:26N 37°54' W 122°22'0 0.0
2017-Oct-13 23:59N 37°54' W 122°22'0 0.0
2017-Oct-13 23:29N 37°54' W 122°22'0 0.0
2017-Oct-13 22:59N 37°54' W 122°22'0 0.0
2017-Oct-13 22:29N 37°54' W 122°22'0 0.0
2017-Oct-13 21:59N 37°54' W 122°22'0 0.0
2017-Oct-13 21:26N 37°54' W 122°22'0 0.0
2017-Oct-13 20:59N 37°54' W 122°22'0 0.0
2017-Oct-13 20:29N 37°54' W 122°22'0 0.0
2017-Oct-13 19:59N 37°54' W 122°22'0 0.0
2017-Oct-13 19:29N 37°54' W 122°22'0 0.0
2017-Oct-13 18:59N 37°54' W 122°22'0 0.0
2017-Oct-13 18:29N 37°54' W 122°22'0 0.0
2017-Oct-13 17:59N 37°54' W 122°22'0 0.0
2017-Oct-13 17:29N 37°54' W 122°22'0 0.0
2017-Oct-13 16:59N 37°54' W 122°22'0 0.1
2017-Oct-13 16:29N 37°54' W 122°22'0 0.0
2017-Oct-13 15:59N 37°54' W 122°22'1 1.9
2017-Oct-13 15:30N 37°55' W 122°22'0 0.6
2017-Oct-13 15:00N 37°55' W 122°22'1 1.8
2017-Oct-13 14:30N 37°54' W 122°22'0 0.4
2017-Oct-13 13:58N 37°54' W 122°22'0 0.0
2017-Oct-13 13:28N 37°54' W 122°22'0 0.0
2017-Oct-13 12:58N 37°54' W 122°22'0 0.0
2017-Oct-13 12:25N 37°54' W 122°22'0 0.0
2017-Oct-13 11:58N 37°54' W 122°22'0 0.0
2017-Oct-13 11:25N 37°54' W 122°22'1 3.5
2017-Oct-13 11:00N 37°55' W 122°24'1 2.4
2017-Oct-13 10:30N 37°56' W 122°25'0 0.1
2017-Oct-13 09:27N 37°56' W 122°25'0 0.0
2017-Oct-13 08:30N 37°56' W 122°25'0 0.0
2017-Oct-13 08:00N 37°56' W 122°25'0 0.0
2017-Oct-13 04:48N 37°56' W 122°25'0 0.0
2017-Oct-13 04:30N 37°56' W 122°25'0 0.0
2017-Oct-13 03:54N 37°56' W 122°25'0 0.0
2017-Oct-13 03:30N 37°56' W 122°25'0 0.0
2017-Oct-13 02:05N 37°56' W 122°25'0 1.4
2017-Oct-13 02:00N 37°56' W 122°25'2 4.8
2017-Oct-13 01:30N 37°54' W 122°22'1 1.5
2017-Oct-13 01:00N 37°55' W 122°22'2 4.5
2017-Oct-13 00:30N 37°55' W 122°25'1 1.3
2017-Oct-13 00:00N 37°55' W 122°25'2 3.7
2017-Oct-12 23:30N 37°54' W 122°23'0 0.7
2017-Oct-12 22:53N 37°54' W 122°22'0 0.0
2017-Oct-12 22:29N 37°54' W 122°22'0 0.0
2017-Oct-12 21:59N 37°54' W 122°22'0 0.0
2017-Oct-12 21:29N 37°54' W 122°22'0 0.0
2017-Oct-12 20:59N 37°54' W 122°22'  
Track history (hours):
 
Tides and Currents Weather Stations Pressure Air Temp Water Temp Dewpoint Dewpoint Depression Visibility Wind Speed Wind Dir Waves Ship Positions

Keegan Foss

Owner: FOSS MARITIME CO, SEATTLE, WA. More information available from US FCC via Universal Licensing System and Coast Guard Vessel Documentation Center.

Last reported at 2017-Oct-22 20:54 UTC. Time now 2017-Oct-22 21:21 UTC.
Position N 37°55' W 122°25'.

Length 31 m; draft 3.6 m.

Type: Tug. MMSI: 366979330.

Date/timePositionNaut miles runAvg speedWind from/ knotsBaromVisibWave heightAir tempDewpointWater temp
2017-Oct-22 20:54N 37°55' W 122°25'0 0.0
2017-Oct-22 20:30N 37°55' W 122°25'2 4.1
2017-Oct-22 20:00N 37°54' W 122°22'1 1.6
2017-Oct-22 19:30N 37°55' W 122°22'1 1.6
2017-Oct-22 19:00N 37°54' W 122°22'0 0.0
2017-Oct-22 18:30N 37°54' W 122°22'1 1.6
2017-Oct-22 17:57N 37°55' W 122°22'0 0.0
2017-Oct-22 17:30N 37°55' W 122°22'0 0.0
2017-Oct-22 17:00N 37°55' W 122°22'0 0.0
2017-Oct-22 16:30N 37°55' W 122°22'0 0.0
2017-Oct-22 16:00N 37°55' W 122°22'0 0.0
2017-Oct-22 15:30N 37°55' W 122°22'0 0.0
2017-Oct-22 15:00N 37°55' W 122°22'0 0.0
2017-Oct-22 14:27N 37°55' W 122°22'0 0.0
2017-Oct-22 14:00N 37°55' W 122°22'0 0.0
2017-Oct-22 13:30N 37°55' W 122°22'0 0.0
2017-Oct-22 13:00N 37°55' W 122°22'0 0.0
2017-Oct-22 12:30N 37°55' W 122°22'0 0.0
2017-Oct-22 11:57N 37°55' W 122°22'0 0.0
2017-Oct-22 11:30N 37°55' W 122°22'1 1.4
2017-Oct-22 11:00N 37°54' W 122°22'2 4.7
2017-Oct-22 10:30N 37°55' W 122°25'1 1.3
2017-Oct-22 10:00N 37°55' W 122°25'0 0.4
2017-Oct-22 09:31N 37°55' W 122°25'0 0.0
2017-Oct-22 09:00N 37°55' W 122°25'0 0.0
2017-Oct-22 08:25N 37°55' W 122°25'0 0.0
2017-Oct-22 07:52N 37°55' W 122°25'0 0.0
2017-Oct-22 07:30N 37°55' W 122°25'0 0.0
2017-Oct-22 06:57N 37°55' W 122°25'0 0.0
2017-Oct-22 06:27N 37°55' W 122°25'0 0.0
2017-Oct-22 06:00N 37°55' W 122°25'0 0.0
2017-Oct-22 05:27N 37°55' W 122°25'0 0.0
2017-Oct-22 05:00N 37°55' W 122°25'1 1.5
2017-Oct-22 04:30N 37°55' W 122°24'2 3.2
2017-Oct-22 04:00N 37°54' W 122°22'0 0.0
2017-Oct-22 03:30N 37°54' W 122°22'0 0.0
2017-Oct-22 03:00N 37°54' W 122°22'0 0.0
2017-Oct-22 02:30N 37°54' W 122°22'0 0.0
2017-Oct-22 02:00N 37°54' W 122°22'0 0.0
2017-Oct-22 01:30N 37°54' W 122°22'0 0.0
2017-Oct-22 01:00N 37°54' W 122°22'0 0.0
2017-Oct-22 00:30N 37°54' W 122°22'0 0.0
2017-Oct-22 00:00N 37°54' W 122°22'0 0.0
2017-Oct-21 23:30N 37°54' W 122°22'0 0.0
2017-Oct-21 23:00N 37°54' W 122°22'0 0.0
2017-Oct-21 22:30N 37°54' W 122°22'0 0.0
2017-Oct-21 22:00N 37°54' W 122°22'0 0.0
2017-Oct-21 21:30N 37°54' W 122°22'0 0.0
2017-Oct-21 21:00N 37°54' W 122°22'0 0.0
2017-Oct-21 20:30N 37°54' W 122°22'0 0.1
2017-Oct-21 20:00N 37°54' W 122°22'1 1.9
2017-Oct-21 19:30N 37°55' W 122°22'1 1.6
2017-Oct-21 19:00N 37°55' W 122°22'2 4.4
2017-Oct-21 18:30N 37°55' W 122°24'1 1.6
2017-Oct-21 18:00N 37°56' W 122°25'0 0.3
2017-Oct-21 17:20N 37°55' W 122°25'0 0.0
2017-Oct-21 16:56N 37°55' W 122°25'0 0.0
2017-Oct-21 16:29N 37°55' W 122°25'0 0.0
2017-Oct-21 15:59N 37°55' W 122°25'0 0.0
2017-Oct-21 15:14N 37°55' W 122°25'0 0.0
2017-Oct-21 14:56N 37°55' W 122°25'0 0.0
2017-Oct-21 14:30N 37°55' W 122°25'0 0.0
2017-Oct-21 13:29N 37°55' W 122°25'0 0.0
2017-Oct-21 12:59N 37°55' W 122°25'0 0.0
2017-Oct-21 12:29N 37°55' W 122°25'0 0.0
2017-Oct-21 11:59N 37°55' W 122°25'0 0.0
2017-Oct-21 11:26N 37°55' W 122°25'0 0.0
2017-Oct-21 10:59N 37°55' W 122°25'0 0.0
2017-Oct-21 10:29N 37°55' W 122°25'0 0.0
2017-Oct-21 09:56N 37°55' W 122°25'0 0.0
2017-Oct-21 09:29N 37°55' W 122°25'0 0.0
2017-Oct-21 08:59N 37°55' W 122°25'0 0.0
2017-Oct-21 08:26N 37°55' W 122°25'0 0.0
2017-Oct-21 07:59N 37°55' W 122°25'0 0.0
2017-Oct-21 07:26N 37°55' W 122°25'0 0.0
2017-Oct-21 06:59N 37°55' W 122°25'0 0.0
2017-Oct-21 06:29N 37°55' W 122°25'0 0.0
2017-Oct-21 05:59N 37°55' W 122°25'0 0.0
2017-Oct-21 05:29N 37°55' W 122°25'0 0.0
2017-Oct-21 04:53N 37°55' W 122°25'0 0.3
2017-Oct-21 04:30N 37°55' W 122°25'0 0.9
2017-Oct-21 04:00N 37°56' W 122°25'0 0.2
2017-Oct-21 03:30N 37°56' W 122°25'2 4.7
2017-Oct-21 03:01N 37°54' W 122°22'0 0.0
2017-Oct-21 02:30N 37°54' W 122°22'0 0.0
2017-Oct-21 02:00N 37°54' W 122°22'0 0.0
2017-Oct-21 01:30N 37°54' W 122°22'0 0.0
2017-Oct-21 01:00N 37°54' W 122°22'0 0.0
2017-Oct-21 00:30N 37°54' W 122°22'0 0.0
2017-Oct-21 00:00N 37°54' W 122°22'0 0.0
2017-Oct-20 23:30N 37°54' W 122°22'0 0.0
2017-Oct-20 23:00N 37°54' W 122°22'0 0.5
2017-Oct-20 22:30N 37°54' W 122°22'1 2.1
2017-Oct-20 22:00N 37°55' W 122°22'0 0.8
2017-Oct-20 21:30N 37°55' W 122°22'1 1.5
2017-Oct-20 21:01N 37°54' W 122°22'0 0.0
2017-Oct-20 20:30N 37°54' W 122°22'0 0.0
2017-Oct-20 20:00N 37°54' W 122°22'0 0.0
2017-Oct-20 19:31N 37°54' W 122°22'0 0.0
2017-Oct-20 19:00N 37°54' W 122°22'0 0.0
2017-Oct-20 18:30N 37°54' W 122°22'0 0.9
2017-Oct-20 18:00N 37°54' W 122°23'2 2.8
2017-Oct-20 17:25N 37°55' W 122°25'0 0.0
2017-Oct-20 16:58N 37°55' W 122°25'0 0.0
2017-Oct-20 16:25N 37°55' W 122°25'0 0.0
2017-Oct-20 15:58N 37°55' W 122°25'0 0.0
2017-Oct-20 15:25N 37°55' W 122°25'0 0.0
2017-Oct-20 14:58N 37°55' W 122°25'0 0.0
2017-Oct-20 13:49N 37°55' W 122°25'0 0.0
2017-Oct-20 13:28N 37°55' W 122°25'0 0.0
2017-Oct-20 12:58N 37°55' W 122°25'0 0.0
2017-Oct-20 12:28N 37°55' W 122°25'0 0.0
2017-Oct-20 11:58N 37°55' W 122°25'0 0.0
2017-Oct-20 11:28N 37°55' W 122°25'0 0.0
2017-Oct-20 10:58N 37°55' W 122°25'0 0.0
2017-Oct-20 10:28N 37°55' W 122°25'0 0.0
2017-Oct-20 09:58N 37°55' W 122°25'0 0.0
2017-Oct-20 09:28N 37°55' W 122°25'0 0.0
2017-Oct-20 08:55N 37°55' W 122°25'0 0.0
2017-Oct-20 08:28N 37°55' W 122°25'0 0.0
2017-Oct-20 08:01N 37°55' W 122°25'2 4.3
2017-Oct-20 07:30N 37°55' W 122°22'0 0.4
2017-Oct-20 07:00N 37°55' W 122°22'2 3.3
2017-Oct-20 06:31N 37°54' W 122°24'1 3.0
2017-Oct-20 06:00N 37°56' W 122°25'0 1.0
2017-Oct-20 05:31N 37°55' W 122°25'0 0.2
2017-Oct-20 05:01N 37°55' W 122°25'0 0.0
2017-Oct-20 04:30N 37°55' W 122°25'0 0.0
2017-Oct-20 04:01N 37°55' W 122°25'0 0.0
2017-Oct-20 03:31N 37°55' W 122°25'0 0.0
2017-Oct-20 03:01N 37°55' W 122°25'0 0.0
2017-Oct-20 02:31N 37°55' W 122°25'0 0.0
2017-Oct-20 02:00N 37°55' W 122°25'0 0.0
2017-Oct-20 01:30N 37°55' W 122°25'0 0.0
2017-Oct-20 01:01N 37°55' W 122°25'0 0.0
2017-Oct-20 00:30N 37°55' W 122°25'0 0.0
2017-Oct-20 00:01N 37°55' W 122°25'0 0.0
2017-Oct-19 23:30N 37°55' W 122°25'0 0.0
2017-Oct-19 23:01N 37°55' W 122°25'0 0.0
2017-Oct-19 22:31N 37°55' W 122°25'0 0.0
2017-Oct-19 22:01N 37°55' W 122°25'0 0.0
2017-Oct-19 21:31N 37°55' W 122°25'0 0.0
2017-Oct-19 21:00N 37°55' W 122°25'0 0.0
2017-Oct-19 20:31N 37°55' W 122°25'0 0.9
2017-Oct-19 20:01N 37°56' W 122°25'0 0.0
2017-Oct-19 19:30N 37°56' W 122°25'1 1.5
2017-Oct-19 19:01N 37°55' W 122°25'1 2.0
2017-Oct-19 18:30N 37°54' W 122°25'1 2.7
2017-Oct-19 18:00N 37°55' W 122°25'0 0.0
2017-Oct-19 17:09N 37°55' W 122°25'0 0.0
2017-Oct-19 16:48N 37°55' W 122°25'0 0.0
2017-Oct-19 16:27N 37°55' W 122°25'0 0.0
2017-Oct-19 15:57N 37°55' W 122°25'0 0.0
2017-Oct-19 15:30N 37°55' W 122°25'2 4.1
2017-Oct-19 15:01N 37°54' W 122°22'0 0.1
2017-Oct-19 14:30N 37°54' W 122°22'0 0.0
2017-Oct-19 14:00N 37°54' W 122°22'0 0.0
2017-Oct-19 13:30N 37°54' W 122°22'0 0.0
2017-Oct-19 13:00N 37°54' W 122°22'0 0.0
2017-Oct-19 12:30N 37°54' W 122°22'0 0.0
2017-Oct-19 12:00N 37°54' W 122°22'0 0.1
2017-Oct-19 11:29N 37°54' W 122°22'1 1.8
2017-Oct-19 11:00N 37°54' W 122°23'2 4.0
2017-Oct-19 10:30N 37°53' W 122°24'4 8.0
2017-Oct-19 10:00N 37°49' W 122°22'2 3.5
2017-Oct-19 09:30N 37°49' W 122°19'0 0.1
2017-Oct-19 09:00N 37°49' W 122°20'0 0.0
2017-Oct-19 08:30N 37°49' W 122°20'0 0.0
2017-Oct-19 08:00N 37°49' W 122°20'0 0.0
2017-Oct-19 07:30N 37°49' W 122°20'0 0.0
2017-Oct-19 07:00N 37°49' W 122°20'0 0.0
2017-Oct-19 06:30N 37°49' W 122°20'0 0.0
2017-Oct-19 06:00N 37°49' W 122°20'0 0.0
2017-Oct-19 05:30N 37°49' W 122°20'0 0.1
2017-Oct-19 05:00N 37°49' W 122°19'2 4.1
2017-Oct-19 04:30N 37°50' W 122°22'4 7.9
2017-Oct-19 04:00N 37°53' W 122°25'2 4.4
2017-Oct-19 03:30N 37°54' W 122°22'1 1.9
2017-Oct-19 03:00N 37°55' W 122°22'1 1.6
2017-Oct-19 02:30N 37°54' W 122°22'0 0.0
2017-Oct-19 01:53N 37°54' W 122°22'0 0.0
2017-Oct-19 01:29N 37°54' W 122°22'0 0.0
2017-Oct-19 00:59N 37°54' W 122°22'0 0.0
2017-Oct-19 00:26N 37°54' W 122°22'0 0.0
2017-Oct-18 23:59N 37°54' W 122°22'0 0.0
2017-Oct-18 23:29N 37°54' W 122°22'0 0.0
2017-Oct-18 22:59N 37°54' W 122°22'0 0.4
2017-Oct-18 22:30N 37°54' W 122°22'1 2.0
2017-Oct-18 21:59N 37°55' W 122°22'1 2.1
2017-Oct-18 21:30N 37°54' W 122°23'2 4.5
2017-Oct-18 20:59N 37°56' W 122°25'0 0.4
2017-Oct-18 20:30N 37°56' W 122°25'2 4.6
2017-Oct-18 19:58N 37°54' W 122°22'0 0.0
2017-Oct-18 19:28N 37°54' W 122°22'0 0.0
2017-Oct-18 18:58N 37°54' W 122°22'0 0.0
2017-Oct-18 18:28N 37°54' W 122°22'0 0.0
2017-Oct-18 17:58N 37°54' W 122°22'0 0.0
2017-Oct-18 17:30N 37°54' W 122°22'1 1.5
2017-Oct-18 17:00N 37°55' W 122°22'0 0.4
2017-Oct-18 16:30N 37°55' W 122°22'1 1.3
2017-Oct-18 16:00N 37°54' W 122°22'0 0.1
2017-Oct-18 15:30N 37°54' W 122°22'0 0.0
2017-Oct-18 15:00N 37°54' W 122°22'0 0.0
2017-Oct-18 13:57N 37°54' W 122°22'0 0.0
2017-Oct-18 13:24N 37°54' W 122°22'0 0.0
2017-Oct-18 12:54N 37°54' W 122°22'0 0.0
2017-Oct-18 12:27N 37°54' W 122°22'0 0.0
2017-Oct-18 12:00N 37°54' W 122°22'0 0.0
2017-Oct-18 11:27N 37°54' W 122°22'0 0.0
2017-Oct-18 10:57N 37°54' W 122°22'0 0.0
2017-Oct-18 10:24N 37°54' W 122°22'0 0.0
2017-Oct-18 10:00N 37°54' W 122°22'0 0.0
2017-Oct-18 09:30N 37°54' W 122°22'0 0.0
2017-Oct-18 09:00N 37°54' W 122°22'0 0.0
2017-Oct-18 08:30N 37°54' W 122°22'0 0.0
2017-Oct-18 08:00N 37°54' W 122°22'0 0.0
2017-Oct-18 07:30N 37°54' W 122°22'0 0.0
2017-Oct-18 07:00N 37°54' W 122°22'0 0.0
2017-Oct-18 06:30N 37°54' W 122°22'0 0.0
2017-Oct-18 06:00N 37°54' W 122°22'0 0.0
2017-Oct-18 05:30N 37°54' W 122°22'0 0.0
2017-Oct-18 05:00N 37°54' W 122°22'0 0.0
2017-Oct-18 04:30N 37°54' W 122°22'0 0.9
2017-Oct-18 04:00N 37°54' W 122°22'0 0.0
2017-Oct-18 03:31N 37°54' W 122°22'0 0.8
2017-Oct-18 03:00N 37°54' W 122°22'3 5.7
2017-Oct-18 02:30N 37°56' W 122°25'2 3.8
2017-Oct-18 02:00N 37°54' W 122°24'1 2.9
2017-Oct-18 01:30N 37°54' W 122°22'0 0.1
2017-Oct-18 01:00N 37°54' W 122°22'0 0.6
2017-Oct-18 00:30N 37°55' W 122°22'0 0.5
2017-Oct-18 00:00N 37°55' W 122°22'1 1.1
2017-Oct-17 23:28N 37°54' W 122°22'0 0.0
2017-Oct-17 22:55N 37°54' W 122°22'0 0.0
2017-Oct-17 22:29N 37°54' W 122°22'1 2.1
2017-Oct-17 22:00N 37°54' W 122°24'2 4.6
2017-Oct-17 21:30N 37°52' W 122°25'4 8.9
2017-Oct-17 21:00N 37°48' W 122°22'2 4.3
2017-Oct-17 20:30N 37°46' W 122°21'0 0.0
2017-Oct-17 20:01N 37°46' W 122°21'0 0.0
2017-Oct-17 19:30N 37°46' W 122°21'0 0.3
2017-Oct-17 19:00N 37°46' W 122°21'0 0.1
2017-Oct-17 18:30N 37°46' W 122°21'0 0.1
2017-Oct-17 18:01N 37°46' W 122°21'0 0.0
2017-Oct-17 17:30N 37°46' W 122°21'0 0.0
2017-Oct-17 17:00N 37°46' W 122°21'0 0.0
2017-Oct-17 16:30N 37°46' W 122°21'4 8.0
2017-Oct-17 16:00N 37°50' W 122°23'4 7.7
2017-Oct-17 15:30N 37°53' W 122°24'2 4.6
2017-Oct-17 15:00N 37°54' W 122°22'0 0.1
2017-Oct-17 14:30N 37°54' W 122°22'0 0.0
2017-Oct-17 14:00N 37°54' W 122°22'0 0.0
2017-Oct-17 13:30N 37°54' W 122°22'0 0.0
2017-Oct-17 13:00N 37°54' W 122°22'0 0.0
2017-Oct-17 12:30N 37°54' W 122°22'0 0.0
2017-Oct-17 12:01N 37°54' W 122°22'0 0.0
2017-Oct-17 11:30N 37°54' W 122°22'1 1.0
2017-Oct-17 11:00N 37°54' W 122°22'0 0.1
2017-Oct-17 10:30N 37°54' W 122°22'0 0.0
2017-Oct-17 10:00N 37°54' W 122°22'0 0.0
2017-Oct-17 09:27N 37°54' W 122°22'0 0.0
2017-Oct-17 09:00N 37°54' W 122°22'0 0.0
2017-Oct-17 08:30N 37°54' W 122°22'0 0.0
2017-Oct-17 08:00N 37°54' W 122°22'0 0.0
2017-Oct-17 07:30N 37°54' W 122°22'0 0.0
2017-Oct-17 07:00N 37°54' W 122°22'0 0.0
2017-Oct-17 06:30N 37°54' W 122°22'0 0.0
2017-Oct-17 06:00N 37°54' W 122°22'0 0.0
2017-Oct-17 05:30N 37°54' W 122°22'0 0.0
2017-Oct-17 05:00N 37°54' W 122°22'0 0.0
2017-Oct-17 04:30N 37°54' W 122°22'0 0.0
2017-Oct-17 04:00N 37°54' W 122°22'0 0.0
2017-Oct-17 03:15N 37°54' W 122°22'0 0.0
2017-Oct-17 03:00N 37°54' W 122°22'0 0.0
2017-Oct-17 02:30N 37°54' W 122°22'0 0.0
2017-Oct-17 02:00N 37°54' W 122°22'0 0.0
2017-Oct-17 01:27N 37°54' W 122°22'0 0.0
2017-Oct-17 01:00N 37°54' W 122°22'0 0.0
2017-Oct-17 00:30N 37°54' W 122°22'0 0.5
2017-Oct-17 00:00N 37°54' W 122°23'2 3.6
2017-Oct-16 23:31N 37°54' W 122°25'4 7.0
2017-Oct-16 23:00N 37°51' W 122°23'4 7.1
2017-Oct-16 22:30N 37°48' W 122°20'2 3.1
2017-Oct-16 22:00N 37°48' W 122°18'0 0.0
2017-Oct-16 21:30N 37°48' W 122°18'0 0.0
2017-Oct-16 21:00N 37°48' W 122°18'0 0.0
2017-Oct-16 20:31N 37°48' W 122°18'0 0.0
2017-Oct-16 20:00N 37°48' W 122°18'0 0.0
2017-Oct-16 19:30N 37°48' W 122°18'0 0.0
2017-Oct-16 19:01N 37°48' W 122°18'0 0.0
2017-Oct-16 18:31N 37°48' W 122°18'0 0.0
2017-Oct-16 18:01N 37°48' W 122°18'0 0.0
2017-Oct-16 17:30N 37°48' W 122°18'0 0.0
2017-Oct-16 17:00N 37°48' W 122°18'0 0.0
2017-Oct-16 16:30N 37°48' W 122°18'0 0.0
2017-Oct-16 16:01N 37°48' W 122°18'2 3.8
2017-Oct-16 15:31N 37°48' W 122°20'4 8.0
2017-Oct-16 15:00N 37°51' W 122°23'4 3.7
2017-Oct-16 14:01N 37°55' W 122°22'0 0.8
2017-Oct-16 13:31N 37°54' W 122°22'0 0.9
2017-Oct-16 12:59N 37°54' W 122°22'0 0.0
2017-Oct-16 12:29N 37°54' W 122°22'0 0.0
2017-Oct-16 11:59N 37°54' W 122°22'0 0.0
2017-Oct-16 11:29N 37°54' W 122°22'0 0.0
2017-Oct-16 10:59N 37°54' W 122°22'0 0.0
2017-Oct-16 10:29N 37°54' W 122°22'0 0.0
2017-Oct-16 09:59N 37°54' W 122°22'0 0.0
2017-Oct-16 09:29N 37°54' W 122°22'0 0.0
2017-Oct-16 08:59N 37°54' W 122°22'0 0.0
2017-Oct-16 08:29N 37°54' W 122°22'0 0.0
2017-Oct-16 07:59N 37°54' W 122°22'0 0.0
2017-Oct-16 07:29N 37°54' W 122°22'0 0.0
2017-Oct-16 06:59N 37°54' W 122°22'0 0.0
2017-Oct-16 06:29N 37°54' W 122°22'0 0.0
2017-Oct-16 05:59N 37°54' W 122°22'0 0.0
2017-Oct-16 05:29N 37°54' W 122°22'0 0.0
2017-Oct-16 04:59N 37°54' W 122°22'0 0.0
2017-Oct-16 04:29N 37°54' W 122°22'0 0.0
2017-Oct-16 03:59N 37°54' W 122°22'0 0.0
2017-Oct-16 03:29N 37°54' W 122°22'0 0.0
2017-Oct-16 02:59N 37°54' W 122°22'0 0.0
2017-Oct-16 02:29N 37°54' W 122°22'0 0.0
2017-Oct-16 01:59N 37°54' W 122°22'0 0.0
2017-Oct-16 01:29N 37°54' W 122°22'0 0.0
2017-Oct-16 00:56N 37°54' W 122°22'0 0.0
2017-Oct-16 00:29N 37°54' W 122°22'0 0.0
2017-Oct-15 23:59N 37°54' W 122°22'0 0.0
2017-Oct-15 23:29N 37°54' W 122°22'0 0.0
2017-Oct-15 22:59N 37°54' W 122°22'0 0.0
2017-Oct-15 22:29N 37°54' W 122°22'0 0.0
2017-Oct-15 21:59N 37°54' W 122°22'0 0.0
2017-Oct-15 21:29N 37°54' W 122°22'0 0.0
2017-Oct-15 20:59N 37°54' W 122°22'0 0.0
2017-Oct-15 20:23N 37°54' W 122°22'0 0.0
2017-Oct-15 19:59N 37°54' W 122°22'0 0.0
2017-Oct-15 19:29N 37°54' W 122°22'0 0.0
2017-Oct-15 18:56N 37°54' W 122°22'0 0.0
2017-Oct-15 18:29N 37°54' W 122°22'0 0.0
2017-Oct-15 17:56N 37°54' W 122°22'0 0.0
2017-Oct-15 17:29N 37°54' W 122°22'0 0.0
2017-Oct-15 16:59N 37°54' W 122°22'0 0.0
2017-Oct-15 16:26N 37°54' W 122°22'0 0.0
2017-Oct-15 15:59N 37°54' W 122°22'0 0.0
2017-Oct-15 15:29N 37°54' W 122°22'0 0.0
2017-Oct-15 14:53N 37°54' W 122°22'0 0.0
2017-Oct-15 13:56N 37°54' W 122°22'0 0.0
2017-Oct-15 13:23N 37°54' W 122°22'0 0.0
2017-Oct-15 12:59N 37°54' W 122°22'0 0.0
2017-Oct-15 12:29N 37°54' W 122°22'0 0.0
2017-Oct-15 11:59N 37°54' W 122°22'0 0.0
2017-Oct-15 11:29N 37°54' W 122°22'0 0.0
2017-Oct-15 10:59N 37°54' W 122°22'0 0.0
2017-Oct-15 10:29N 37°54' W 122°22'0 0.0
2017-Oct-15 09:59N 37°54' W 122°22'0 0.0
2017-Oct-15 09:26N 37°54' W 122°22'0 0.0
2017-Oct-15 08:59N 37°54' W 122°22'0 0.0
2017-Oct-15 08:29N 37°54' W 122°22'0 0.0
2017-Oct-15 07:59N 37°54' W 122°22'0 0.0
2017-Oct-15 07:29N 37°54' W 122°22'0 0.0
2017-Oct-15 06:59N 37°54' W 122°22'0 0.0
2017-Oct-15 06:29N 37°54' W 122°22'0 0.0
2017-Oct-15 05:59N 37°54' W 122°22'0 0.0
2017-Oct-15 05:29N 37°54' W 122°22'0 0.0
2017-Oct-15 04:59N 37°54' W 122°22'0 0.0
2017-Oct-15 04:29N 37°54' W 122°22'0 0.0
2017-Oct-15 03:59N 37°54' W 122°22'0 0.0
2017-Oct-15 03:29N 37°54' W 122°22'0 0.0
2017-Oct-15 02:59N 37°54' W 122°22'0 0.0
2017-Oct-15 02:26N 37°54' W 122°22'0 0.0
2017-Oct-15 01:59N 37°54' W 122°22'0 0.0
2017-Oct-15 01:29N 37°54' W 122°22'0 0.0
2017-Oct-15 00:59N 37°54' W 122°22'0 0.0
2017-Oct-15 00:11N 37°54' W 122°22'0 0.0
2017-Oct-14 23:56N 37°54' W 122°22'0 0.0
2017-Oct-14 23:29N 37°54' W 122°22'0 0.0
2017-Oct-14 22:59N 37°54' W 122°22'0 0.0
2017-Oct-14 22:30N 37°54' W 122°22'0 0.0
2017-Oct-14 21:59N 37°54' W 122°22'0 0.0
2017-Oct-14 21:26N 37°54' W 122°22'0 0.0
2017-Oct-14 20:56N 37°54' W 122°22'0 0.0
2017-Oct-14 20:23N 37°54' W 122°22'0 0.0
2017-Oct-14 19:59N 37°54' W 122°22'0 0.0
2017-Oct-14 19:29N 37°54' W 122°22'0 0.0
2017-Oct-14 18:50N 37°54' W 122°22'0 0.0
2017-Oct-14 18:26N 37°54' W 122°22'0 0.0
2017-Oct-14 17:32N 37°54' W 122°22'0 0.0
2017-Oct-14 17:29N 37°54' W 122°22'0 0.0
2017-Oct-14 16:59N 37°54' W 122°22'0 0.0
2017-Oct-14 16:20N 37°54' W 122°22'0 0.0
2017-Oct-14 15:59N 37°54' W 122°22'0 0.0
2017-Oct-14 15:29N 37°54' W 122°22'0 0.0
2017-Oct-14 14:59N 37°54' W 122°22'0 0.0
2017-Oct-14 14:26N 37°54' W 122°22'0 0.0
2017-Oct-14 13:59N 37°54' W 122°22'0 0.0
2017-Oct-14 13:29N 37°54' W 122°22'0 0.0
2017-Oct-14 12:59N 37°54' W 122°22'0 0.0
2017-Oct-14 12:29N 37°54' W 122°22'0 0.0
2017-Oct-14 11:59N 37°54' W 122°22'0 0.0
2017-Oct-14 11:29N 37°54' W 122°22'0 0.0
2017-Oct-14 10:59N 37°54' W 122°22'0 0.0
2017-Oct-14 10:29N 37°54' W 122°22'0 0.0
2017-Oct-14 09:59N 37°54' W 122°22'0 0.0
2017-Oct-14 09:29N 37°54' W 122°22'0 0.0
2017-Oct-14 08:59N 37°54' W 122°22'0 0.0
2017-Oct-14 08:29N 37°54' W 122°22'0 0.0
2017-Oct-14 07:56N 37°54' W 122°22'0 0.0
2017-Oct-14 07:29N 37°54' W 122°22'0 0.0
2017-Oct-14 06:44N 37°54' W 122°22'0 0.0
2017-Oct-14 06:29N 37°54' W 122°22'0 0.0
2017-Oct-14 05:59N 37°54' W 122°22'0 0.0
2017-Oct-14 05:17N 37°54' W 122°22'0 0.0
2017-Oct-14 04:59N 37°54' W 122°22'0 0.0
2017-Oct-14 04:29N 37°54' W 122°22'0 0.0
2017-Oct-14 03:56N 37°54' W 122°22'0 0.0
2017-Oct-14 03:29N 37°54' W 122°22'0 0.0
2017-Oct-14 02:59N 37°54' W 122°22'0 0.0
2017-Oct-14 02:26N 37°54' W 122°22'0 0.0
2017-Oct-14 01:59N 37°54' W 122°22'0 0.0
2017-Oct-14 01:23N 37°54' W 122°22'0 0.0
2017-Oct-14 00:59N 37°54' W 122°22'0 0.0
2017-Oct-14 00:26N 37°54' W 122°22'0 0.0
2017-Oct-13 23:59N 37°54' W 122°22'0 0.0
2017-Oct-13 23:29N 37°54' W 122°22'0 0.0
2017-Oct-13 22:59N 37°54' W 122°22'0 0.0
2017-Oct-13 22:29N 37°54' W 122°22'0 0.0
2017-Oct-13 21:59N 37°54' W 122°22'0 0.0
2017-Oct-13 21:26N 37°54' W 122°22'0 0.0
2017-Oct-13 20:59N 37°54' W 122°22'0 0.0
2017-Oct-13 20:29N 37°54' W 122°22'0 0.0
2017-Oct-13 19:59N 37°54' W 122°22'0 0.0
2017-Oct-13 19:29N 37°54' W 122°22'0 0.0
2017-Oct-13 18:59N 37°54' W 122°22'0 0.0
2017-Oct-13 18:29N 37°54' W 122°22'0 0.0
2017-Oct-13 17:59N 37°54' W 122°22'0 0.0
2017-Oct-13 17:29N 37°54' W 122°22'0 0.0
2017-Oct-13 16:59N 37°54' W 122°22'0 0.1
2017-Oct-13 16:29N 37°54' W 122°22'0 0.0
2017-Oct-13 15:59N 37°54' W 122°22'1 1.9
2017-Oct-13 15:30N 37°55' W 122°22'0 0.6
2017-Oct-13 15:00N 37°55' W 122°22'1 1.8
2017-Oct-13 14:30N 37°54' W 122°22'0 0.4
2017-Oct-13 13:58N 37°54' W 122°22'0 0.0
2017-Oct-13 13:28N 37°54' W 122°22'0 0.0
2017-Oct-13 12:58N 37°54' W 122°22'0 0.0
2017-Oct-13 12:25N 37°54' W 122°22'0 0.0
2017-Oct-13 11:58N 37°54' W 122°22'0 0.0
2017-Oct-13 11:25N 37°54' W 122°22'1 3.5
2017-Oct-13 11:00N 37°55' W 122°24'1 2.4
2017-Oct-13 10:30N 37°56' W 122°25'0 0.1
2017-Oct-13 09:27N 37°56' W 122°25'0 0.0
2017-Oct-13 08:30N 37°56' W 122°25'0 0.0
2017-Oct-13 08:00N 37°56' W 122°25'0 0.0
2017-Oct-13 04:48N 37°56' W 122°25'0 0.0
2017-Oct-13 04:30N 37°56' W 122°25'0 0.0
2017-Oct-13 03:54N 37°56' W 122°25'0 0.0
2017-Oct-13 03:30N 37°56' W 122°25'0 0.0
2017-Oct-13 02:05N 37°56' W 122°25'0 1.4
2017-Oct-13 02:00N 37°56' W 122°25'2 4.8
2017-Oct-13 01:30N 37°54' W 122°22'1 1.5
2017-Oct-13 01:00N 37°55' W 122°22'2 4.5
2017-Oct-13 00:30N 37°55' W 122°25'1 1.3
2017-Oct-13 00:00N 37°55' W 122°25'2 3.7
2017-Oct-12 23:30N 37°54' W 122°23'0 0.7
2017-Oct-12 22:53N 37°54' W 122°22'0 0.0
2017-Oct-12 22:29N 37°54' W 122°22'0 0.0
2017-Oct-12 21:59N 37°54' W 122°22'0 0.0
2017-Oct-12 21:29N 37°54' W 122°22'0 0.0
2017-Oct-12 20:59N 37°54' W 122°22'  

Dump ship's entire track history